sensor_id;sensor_type;location;lat;lon;timestamp;temperature;humidity
62573;DHT22;48626;51.678;5.806;2022-08-03T00:01:57;21.60;80.10
62573;DHT22;48626;51.678;5.806;2022-08-03T00:04:23;21.60;80.20
62573;DHT22;48626;51.678;5.806;2022-08-03T00:06:48;21.50;80.10
62573;DHT22;48626;51.678;5.806;2022-08-03T00:09:14;21.50;80.20
62573;DHT22;48626;51.678;5.806;2022-08-03T00:11:40;21.50;80.50
62573;DHT22;48626;51.678;5.806;2022-08-03T00:14:05;21.40;80.70
62573;DHT22;48626;51.678;5.806;2022-08-03T00:16:31;21.40;81.00
62573;DHT22;48626;51.678;5.806;2022-08-03T00:18:57;21.30;81.10
62573;DHT22;48626;51.678;5.806;2022-08-03T00:21:23;21.30;81.30
62573;DHT22;48626;51.678;5.806;2022-08-03T00:23:48;21.20;81.50
62573;DHT22;48626;51.678;5.806;2022-08-03T00:26:14;21.20;81.60
62573;DHT22;48626;51.678;5.806;2022-08-03T00:28:40;21.10;81.90
62573;DHT22;48626;51.678;5.806;2022-08-03T00:31:06;21.10;82.00
62573;DHT22;48626;51.678;5.806;2022-08-03T00:33:32;21.10;82.10
62573;DHT22;48626;51.678;5.806;2022-08-03T00:35:57;21.10;82.20
62573;DHT22;48626;51.678;5.806;2022-08-03T00:38:23;21.10;82.40
62573;DHT22;48626;51.678;5.806;2022-08-03T00:40:49;21.00;82.50
62573;DHT22;48626;51.678;5.806;2022-08-03T00:43:15;21.00;82.80
62573;DHT22;48626;51.678;5.806;2022-08-03T00:45:41;20.90;83.00
62573;DHT22;48626;51.678;5.806;2022-08-03T00:48:08;20.90;83.20
62573;DHT22;48626;51.678;5.806;2022-08-03T00:50:37;20.90;83.30
62573;DHT22;48626;51.678;5.806;2022-08-03T00:53:04;20.90;83.20
62573;DHT22;48626;51.678;5.806;2022-08-03T00:55:30;20.80;83.10
62573;DHT22;48626;51.678;5.806;2022-08-03T00:57:56;20.80;83.20
62573;DHT22;48626;51.678;5.806;2022-08-03T01:00:24;20.70;83.20
62573;DHT22;48626;51.678;5.806;2022-08-03T01:02:51;20.70;83.40
62573;DHT22;48626;51.678;5.806;2022-08-03T01:05:17;20.70;83.60
62573;DHT22;48626;51.678;5.806;2022-08-03T01:10:31;20.70;84.00
62573;DHT22;48626;51.678;5.806;2022-08-03T01:13:29;20.70;84.00
62573;DHT22;48626;51.678;5.806;2022-08-03T01:16:05;20.70;84.10
62573;DHT22;48626;51.678;5.806;2022-08-03T01:21:17;20.60;84.10
62573;DHT22;48626;51.678;5.806;2022-08-03T01:24:12;20.60;84.30
62573;DHT22;48626;51.678;5.806;2022-08-03T01:27:04;20.50;84.20
62573;DHT22;48626;51.678;5.806;2022-08-03T01:29:51;20.50;84.30
62573;DHT22;48626;51.678;5.806;2022-08-03T01:32:35;20.40;84.50
62573;DHT22;48626;51.678;5.806;2022-08-03T01:35:05;20.40;84.60
62573;DHT22;48626;51.678;5.806;2022-08-03T01:37:41;20.40;84.70
62573;DHT22;48626;51.678;5.806;2022-08-03T01:40:09;20.30;84.80
62573;DHT22;48626;51.678;5.806;2022-08-03T01:42:39;20.20;84.90
62573;DHT22;48626;51.678;5.806;2022-08-03T01:45:07;20.20;84.90
62573;DHT22;48626;51.678;5.806;2022-08-03T01:47:33;20.10;85.20
62573;DHT22;48626;51.678;5.806;2022-08-03T01:50:00;20.10;85.50
62573;DHT22;48626;51.678;5.806;2022-08-03T01:52:28;20.10;85.70
62573;DHT22;48626;51.678;5.806;2022-08-03T01:54:56;20.10;86.10
62573;DHT22;48626;51.678;5.806;2022-08-03T01:57:23;20.10;86.20
62573;DHT22;48626;51.678;5.806;2022-08-03T01:59:50;20.10;86.30
62573;DHT22;48626;51.678;5.806;2022-08-03T02:02:17;20.10;86.50
62573;DHT22;48626;51.678;5.806;2022-08-03T02:04:45;20.10;86.60
62573;DHT22;48626;51.678;5.806;2022-08-03T02:07:13;20.10;86.80
62573;DHT22;48626;51.678;5.806;2022-08-03T02:09:40;20.00;86.80
62573;DHT22;48626;51.678;5.806;2022-08-03T02:12:09;20.00;86.90
62573;DHT22;48626;51.678;5.806;2022-08-03T02:14:37;20.00;87.00
62573;DHT22;48626;51.678;5.806;2022-08-03T02:17:04;19.90;87.10
62573;DHT22;48626;51.678;5.806;2022-08-03T02:19:32;19.90;87.30
62573;DHT22;48626;51.678;5.806;2022-08-03T02:21:58;19.90;87.40
62573;DHT22;48626;51.678;5.806;2022-08-03T02:24:24;19.90;87.60
62573;DHT22;48626;51.678;5.806;2022-08-03T02:26:52;19.90;87.80
62573;DHT22;48626;51.678;5.806;2022-08-03T02:29:21;19.90;88.00
62573;DHT22;48626;51.678;5.806;2022-08-03T02:31:49;19.90;88.10
62573;DHT22;48626;51.678;5.806;2022-08-03T02:34:16;19.90;88.20
62573;DHT22;48626;51.678;5.806;2022-08-03T02:36:46;19.80;88.40
62573;DHT22;48626;51.678;5.806;2022-08-03T02:39:18;19.80;88.60
62573;DHT22;48626;51.678;5.806;2022-08-03T02:41:50;19.90;88.90
62573;DHT22;48626;51.678;5.806;2022-08-03T02:44:20;19.90;88.90
62573;DHT22;48626;51.678;5.806;2022-08-03T02:46:48;19.80;89.00
62573;DHT22;48626;51.678;5.806;2022-08-03T02:49:17;19.80;89.10
62573;DHT22;48626;51.678;5.806;2022-08-03T02:51:44;19.80;89.30
62573;DHT22;48626;51.678;5.806;2022-08-03T02:54:15;19.80;89.40
62573;DHT22;48626;51.678;5.806;2022-08-03T02:56:42;19.80;89.50
62573;DHT22;48626;51.678;5.806;2022-08-03T02:59:09;19.80;89.50
62573;DHT22;48626;51.678;5.806;2022-08-03T03:01:37;19.80;89.70
62573;DHT22;48626;51.678;5.806;2022-08-03T03:04:04;19.80;89.80
62573;DHT22;48626;51.678;5.806;2022-08-03T03:06:30;19.80;90.00
62573;DHT22;48626;51.678;5.806;2022-08-03T03:08:57;19.80;90.00
62573;DHT22;48626;51.678;5.806;2022-08-03T03:11:24;19.80;90.00
62573;DHT22;48626;51.678;5.806;2022-08-03T03:13:52;19.80;90.10
62573;DHT22;48626;51.678;5.806;2022-08-03T03:16:18;19.80;90.10
62573;DHT22;48626;51.678;5.806;2022-08-03T03:18:45;19.70;90.00
62573;DHT22;48626;51.678;5.806;2022-08-03T03:21:12;19.70;90.10
62573;DHT22;48626;51.678;5.806;2022-08-03T03:23:39;19.70;90.20
62573;DHT22;48626;51.678;5.806;2022-08-03T03:26:06;19.70;90.30
62573;DHT22;48626;51.678;5.806;2022-08-03T03:28:32;19.70;90.30
62573;DHT22;48626;51.678;5.806;2022-08-03T03:31:01;19.70;90.40
62573;DHT22;48626;51.678;5.806;2022-08-03T03:33:28;19.70;90.40
62573;DHT22;48626;51.678;5.806;2022-08-03T03:35:54;19.70;90.40
62573;DHT22;48626;51.678;5.806;2022-08-03T03:38:20;19.70;90.40
62573;DHT22;48626;51.678;5.806;2022-08-03T03:40:46;19.70;90.50
62573;DHT22;48626;51.678;5.806;2022-08-03T03:43:12;19.70;90.50
62573;DHT22;48626;51.678;5.806;2022-08-03T03:45:40;19.70;90.60
62573;DHT22;48626;51.678;5.806;2022-08-03T03:48:07;19.70;90.60
62573;DHT22;48626;51.678;5.806;2022-08-03T03:50:34;19.70;90.70
62573;DHT22;48626;51.678;5.806;2022-08-03T03:53:03;19.70;90.80
62573;DHT22;48626;51.678;5.806;2022-08-03T03:55:29;19.70;90.90
62573;DHT22;48626;51.678;5.806;2022-08-03T03:57:55;19.70;90.90
62573;DHT22;48626;51.678;5.806;2022-08-03T04:00:21;19.70;91.00
62573;DHT22;48626;51.678;5.806;2022-08-03T04:02:47;19.70;91.00
62573;DHT22;48626;51.678;5.806;2022-08-03T04:05:14;19.70;91.00
62573;DHT22;48626;51.678;5.806;2022-08-03T04:08:06;19.70;91.10
62573;DHT22;48626;51.678;5.806;2022-08-03T04:11:25;19.70;91.10
62573;DHT22;48626;51.678;5.806;2022-08-03T04:16:19;19.60;90.90
62573;DHT22;48626;51.678;5.806;2022-08-03T04:18:48;19.60;91.20
62573;DHT22;48626;51.678;5.806;2022-08-03T04:21:15;19.60;91.30
62573;DHT22;48626;51.678;5.806;2022-08-03T04:23:47;19.60;91.20
62573;DHT22;48626;51.678;5.806;2022-08-03T04:26:16;19.50;91.40
62573;DHT22;48626;51.678;5.806;2022-08-03T04:28:44;19.50;91.50
62573;DHT22;48626;51.678;5.806;2022-08-03T04:31:12;19.50;91.60
62573;DHT22;48626;51.678;5.806;2022-08-03T04:33:38;19.50;91.60
62573;DHT22;48626;51.678;5.806;2022-08-03T04:36:07;19.60;91.70
62573;DHT22;48626;51.678;5.806;2022-08-03T04:38:53;19.60;91.70
62573;DHT22;48626;51.678;5.806;2022-08-03T04:41:22;19.60;91.70
62573;DHT22;48626;51.678;5.806;2022-08-03T04:43:50;19.60;91.70
62573;DHT22;48626;51.678;5.806;2022-08-03T04:46:18;19.60;91.80
62573;DHT22;48626;51.678;5.806;2022-08-03T04:48:46;19.60;91.80
62573;DHT22;48626;51.678;5.806;2022-08-03T04:51:13;19.60;91.80
62573;DHT22;48626;51.678;5.806;2022-08-03T04:53:39;19.60;91.80
62573;DHT22;48626;51.678;5.806;2022-08-03T04:56:05;19.70;91.90
62573;DHT22;48626;51.678;5.806;2022-08-03T04:58:31;19.70;91.90
62573;DHT22;48626;51.678;5.806;2022-08-03T05:00:57;19.70;91.90
62573;DHT22;48626;51.678;5.806;2022-08-03T05:03:23;19.70;91.90
62573;DHT22;48626;51.678;5.806;2022-08-03T05:05:49;19.80;91.90
62573;DHT22;48626;51.678;5.806;2022-08-03T05:08:14;19.70;91.90
62573;DHT22;48626;51.678;5.806;2022-08-03T05:10:40;19.80;91.90
62573;DHT22;48626;51.678;5.806;2022-08-03T05:13:06;19.80;91.90
62573;DHT22;48626;51.678;5.806;2022-08-03T05:15:36;19.80;92.00
62573;DHT22;48626;51.678;5.806;2022-08-03T05:18:02;19.90;92.00
62573;DHT22;48626;51.678;5.806;2022-08-03T05:20:27;19.90;92.00
62573;DHT22;48626;51.678;5.806;2022-08-03T05:22:53;19.90;92.00
62573;DHT22;48626;51.678;5.806;2022-08-03T05:25:19;19.90;92.00
62573;DHT22;48626;51.678;5.806;2022-08-03T05:27:44;20.00;92.00
62573;DHT22;48626;51.678;5.806;2022-08-03T05:30:10;20.00;92.00
62573;DHT22;48626;51.678;5.806;2022-08-03T05:32:36;20.10;92.00
62573;DHT22;48626;51.678;5.806;2022-08-03T05:35:01;20.10;92.00
62573;DHT22;48626;51.678;5.806;2022-08-03T05:37:27;20.20;92.00
62573;DHT22;48626;51.678;5.806;2022-08-03T05:39:53;20.30;91.90
62573;DHT22;48626;51.678;5.806;2022-08-03T05:42:18;20.40;91.90
62573;DHT22;48626;51.678;5.806;2022-08-03T05:44:44;20.40;91.70
62573;DHT22;48626;51.678;5.806;2022-08-03T05:47:10;20.50;91.70
62573;DHT22;48626;51.678;5.806;2022-08-03T05:49:36;20.60;91.60
62573;DHT22;48626;51.678;5.806;2022-08-03T05:52:02;20.70;91.50
62573;DHT22;48626;51.678;5.806;2022-08-03T05:54:27;20.80;91.50
62573;DHT22;48626;51.678;5.806;2022-08-03T05:56:53;20.90;91.30
62573;DHT22;48626;51.678;5.806;2022-08-03T05:59:19;21.00;91.20
62573;DHT22;48626;51.678;5.806;2022-08-03T06:01:44;21.10;91.00
62573;DHT22;48626;51.678;5.806;2022-08-03T06:04:10;21.20;90.90
62573;DHT22;48626;51.678;5.806;2022-08-03T06:06:36;21.30;90.80
62573;DHT22;48626;51.678;5.806;2022-08-03T06:09:02;21.40;90.60
62573;DHT22;48626;51.678;5.806;2022-08-03T06:11:27;21.50;90.40
62573;DHT22;48626;51.678;5.806;2022-08-03T06:13:53;21.50;90.20
62573;DHT22;48626;51.678;5.806;2022-08-03T06:16:19;21.60;90.10
62573;DHT22;48626;51.678;5.806;2022-08-03T06:18:44;21.70;89.60
62573;DHT22;48626;51.678;5.806;2022-08-03T06:21:10;21.80;89.20
62573;DHT22;48626;51.678;5.806;2022-08-03T06:23:36;21.90;88.80
62573;DHT22;48626;51.678;5.806;2022-08-03T06:26:02;22.00;88.80
62573;DHT22;48626;51.678;5.806;2022-08-03T06:28:27;22.10;88.50
62573;DHT22;48626;51.678;5.806;2022-08-03T06:30:53;22.20;87.70
62573;DHT22;48626;51.678;5.806;2022-08-03T06:33:19;22.30;86.90
62573;DHT22;48626;51.678;5.806;2022-08-03T06:35:44;22.40;86.50
62573;DHT22;48626;51.678;5.806;2022-08-03T06:38:10;22.40;86.20
62573;DHT22;48626;51.678;5.806;2022-08-03T06:40:37;22.50;85.80
62573;DHT22;48626;51.678;5.806;2022-08-03T06:43:05;22.70;85.70
62573;DHT22;48626;51.678;5.806;2022-08-03T06:45:31;22.80;85.20
62573;DHT22;48626;51.678;5.806;2022-08-03T06:48:04;22.90;84.50
62573;DHT22;48626;51.678;5.806;2022-08-03T06:50:31;23.00;83.90
62573;DHT22;48626;51.678;5.806;2022-08-03T06:52:57;23.10;82.80
62573;DHT22;48626;51.678;5.806;2022-08-03T06:55:23;23.20;81.50
62573;DHT22;48626;51.678;5.806;2022-08-03T06:57:49;23.20;81.30
62573;DHT22;48626;51.678;5.806;2022-08-03T07:00:15;23.30;80.80
62573;DHT22;48626;51.678;5.806;2022-08-03T07:02:40;23.30;80.00
62573;DHT22;48626;51.678;5.806;2022-08-03T07:05:08;23.40;79.90
62573;DHT22;48626;51.678;5.806;2022-08-03T07:07:34;23.50;80.10
62573;DHT22;48626;51.678;5.806;2022-08-03T07:10:00;23.60;79.20
62573;DHT22;48626;51.678;5.806;2022-08-03T07:12:27;23.60;79.30
62573;DHT22;48626;51.678;5.806;2022-08-03T07:14:54;23.60;79.30
62573;DHT22;48626;51.678;5.806;2022-08-03T07:17:20;23.70;79.30
62573;DHT22;48626;51.678;5.806;2022-08-03T07:19:45;23.80;78.60
62573;DHT22;48626;51.678;5.806;2022-08-03T07:22:11;24.00;78.60
62573;DHT22;48626;51.678;5.806;2022-08-03T07:24:37;24.10;78.50
62573;DHT22;48626;51.678;5.806;2022-08-03T07:27:03;24.10;78.10
62573;DHT22;48626;51.678;5.806;2022-08-03T07:29:28;24.30;77.40
62573;DHT22;48626;51.678;5.806;2022-08-03T07:31:54;24.30;76.40
62573;DHT22;48626;51.678;5.806;2022-08-03T07:34:20;24.30;75.90
62573;DHT22;48626;51.678;5.806;2022-08-03T07:36:46;24.50;76.10
62573;DHT22;48626;51.678;5.806;2022-08-03T07:39:11;24.50;75.70
62573;DHT22;48626;51.678;5.806;2022-08-03T07:41:37;24.60;76.30
62573;DHT22;48626;51.678;5.806;2022-08-03T07:44:03;24.70;76.70
62573;DHT22;48626;51.678;5.806;2022-08-03T07:46:28;24.80;75.30
62573;DHT22;48626;51.678;5.806;2022-08-03T07:48:54;24.90;74.30
62573;DHT22;48626;51.678;5.806;2022-08-03T07:51:20;25.00;73.80
62573;DHT22;48626;51.678;5.806;2022-08-03T07:53:46;25.10;73.70
62573;DHT22;48626;51.678;5.806;2022-08-03T07:56:11;25.20;73.00
62573;DHT22;48626;51.678;5.806;2022-08-03T07:58:37;25.30;71.10
62573;DHT22;48626;51.678;5.806;2022-08-03T08:01:02;25.30;71.20
62573;DHT22;48626;51.678;5.806;2022-08-03T08:03:28;25.30;71.70
62573;DHT22;48626;51.678;5.806;2022-08-03T08:05:54;25.40;72.00
62573;DHT22;48626;51.678;5.806;2022-08-03T08:08:20;25.40;69.70
62573;DHT22;48626;51.678;5.806;2022-08-03T08:10:46;25.50;71.20
62573;DHT22;48626;51.678;5.806;2022-08-03T08:13:12;25.60;70.50
62573;DHT22;48626;51.678;5.806;2022-08-03T08:15:37;25.70;69.80
62573;DHT22;48626;51.678;5.806;2022-08-03T08:18:03;25.80;69.80
62573;DHT22;48626;51.678;5.806;2022-08-03T08:20:32;25.90;70.70
62573;DHT22;48626;51.678;5.806;2022-08-03T08:23:02;26.10;70.40
62573;DHT22;48626;51.678;5.806;2022-08-03T08:25:30;26.20;69.10
62573;DHT22;48626;51.678;5.806;2022-08-03T08:27:55;26.30;68.60
62573;DHT22;48626;51.678;5.806;2022-08-03T08:30:22;26.40;69.50
62573;DHT22;48626;51.678;5.806;2022-08-03T08:32:49;26.50;68.70
62573;DHT22;48626;51.678;5.806;2022-08-03T08:35:16;26.60;68.90
62573;DHT22;48626;51.678;5.806;2022-08-03T08:37:42;26.70;68.20
62573;DHT22;48626;51.678;5.806;2022-08-03T08:40:09;26.90;68.70
62573;DHT22;48626;51.678;5.806;2022-08-03T08:42:40;27.00;68.30
62573;DHT22;48626;51.678;5.806;2022-08-03T08:45:07;27.00;65.30
62573;DHT22;48626;51.678;5.806;2022-08-03T08:47:37;27.10;65.10
62573;DHT22;48626;51.678;5.806;2022-08-03T08:50:07;27.10;64.50
62573;DHT22;48626;51.678;5.806;2022-08-03T08:52:39;27.20;65.80
62573;DHT22;48626;51.678;5.806;2022-08-03T08:55:08;27.40;65.90
62573;DHT22;48626;51.678;5.806;2022-08-03T08:57:41;27.50;65.40
62573;DHT22;48626;51.678;5.806;2022-08-03T09:00:10;27.60;65.00
62573;DHT22;48626;51.678;5.806;2022-08-03T09:02:39;27.70;63.10
62573;DHT22;48626;51.678;5.806;2022-08-03T09:07:41;27.80;62.90
62573;DHT22;48626;51.678;5.806;2022-08-03T09:10:09;27.90;63.30
62573;DHT22;48626;51.678;5.806;2022-08-03T09:12:41;27.90;62.80
62573;DHT22;48626;51.678;5.806;2022-08-03T09:17:48;28.20;62.50
62573;DHT22;48626;51.678;5.806;2022-08-03T09:20:14;28.20;61.90
62573;DHT22;48626;51.678;5.806;2022-08-03T09:22:52;28.40;61.80
62573;DHT22;48626;51.678;5.806;2022-08-03T09:25:32;28.50;61.80
62573;DHT22;48626;51.678;5.806;2022-08-03T09:28:13;28.60;60.50
62573;DHT22;48626;51.678;5.806;2022-08-03T09:30:41;28.70;60.60
62573;DHT22;48626;51.678;5.806;2022-08-03T09:33:11;28.70;60.80
62573;DHT22;48626;51.678;5.806;2022-08-03T09:35:41;28.90;60.20
62573;DHT22;48626;51.678;5.806;2022-08-03T09:38:15;29.00;60.50
62573;DHT22;48626;51.678;5.806;2022-08-03T09:40:41;29.10;59.10
62573;DHT22;48626;51.678;5.806;2022-08-03T09:43:08;29.10;58.00
62573;DHT22;48626;51.678;5.806;2022-08-03T09:45:35;29.20;57.40
62573;DHT22;48626;51.678;5.806;2022-08-03T09:48:24;29.20;58.70
62573;DHT22;48626;51.678;5.806;2022-08-03T09:51:00;29.40;57.60
62573;DHT22;48626;51.678;5.806;2022-08-03T09:53:28;29.50;58.70
62573;DHT22;48626;51.678;5.806;2022-08-03T09:56:01;29.60;58.80
62573;DHT22;48626;51.678;5.806;2022-08-03T09:58:29;29.70;56.00
62573;DHT22;48626;51.678;5.806;2022-08-03T10:01:04;29.70;56.80
62573;DHT22;48626;51.678;5.806;2022-08-03T10:03:32;29.80;57.40
62573;DHT22;48626;51.678;5.806;2022-08-03T10:06:19;29.90;57.70
62573;DHT22;48626;51.678;5.806;2022-08-03T10:08:46;30.10;57.10
62573;DHT22;48626;51.678;5.806;2022-08-03T10:11:30;30.20;56.30
62573;DHT22;48626;51.678;5.806;2022-08-03T10:13:57;30.20;55.60
62573;DHT22;48626;51.678;5.806;2022-08-03T10:16:23;30.30;54.10
62573;DHT22;48626;51.678;5.806;2022-08-03T10:18:48;30.40;53.90
62573;DHT22;48626;51.678;5.806;2022-08-03T10:21:16;30.50;54.30
62573;DHT22;48626;51.678;5.806;2022-08-03T10:23:44;30.60;55.80
62573;DHT22;48626;51.678;5.806;2022-08-03T10:26:12;30.80;56.50
62573;DHT22;48626;51.678;5.806;2022-08-03T10:28:47;31.00;55.10
62573;DHT22;48626;51.678;5.806;2022-08-03T10:31:14;31.10;55.70
62573;DHT22;48626;51.678;5.806;2022-08-03T10:33:43;31.30;56.10
62573;DHT22;48626;51.678;5.806;2022-08-03T10:36:09;31.60;54.70
62573;DHT22;48626;51.678;5.806;2022-08-03T10:38:43;31.80;53.10
62573;DHT22;48626;51.678;5.806;2022-08-03T10:41:12;32.00;55.80
62573;DHT22;48626;51.678;5.806;2022-08-03T10:43:58;32.40;54.20
62573;DHT22;48626;51.678;5.806;2022-08-03T10:46:27;32.60;54.70
62573;DHT22;48626;51.678;5.806;2022-08-03T10:48:54;33.00;56.70
62573;DHT22;48626;51.678;5.806;2022-08-03T10:51:21;33.20;52.20
62573;DHT22;48626;51.678;5.806;2022-08-03T10:53:47;33.60;54.80
62573;DHT22;48626;51.678;5.806;2022-08-03T10:59:16;34.10;50.30
62573;DHT22;48626;51.678;5.806;2022-08-03T11:01:55;34.20;48.00
62573;DHT22;48626;51.678;5.806;2022-08-03T11:04:22;34.30;49.20
62573;DHT22;48626;51.678;5.806;2022-08-03T11:09:45;34.70;42.20
62573;DHT22;48626;51.678;5.806;2022-08-03T11:12:27;34.70;43.90
62573;DHT22;48626;51.678;5.806;2022-08-03T11:14:55;35.00;46.60
62573;DHT22;48626;51.678;5.806;2022-08-03T11:17:21;35.30;46.10
62573;DHT22;48626;51.678;5.806;2022-08-03T11:19:49;35.40;44.30
62573;DHT22;48626;51.678;5.806;2022-08-03T11:22:15;35.50;46.30
62573;DHT22;48626;51.678;5.806;2022-08-03T11:35:27;36.80;43.40
62573;DHT22;48626;51.678;5.806;2022-08-03T11:43:03;37.40;42.40
62573;DHT22;48626;51.678;5.806;2022-08-03T11:45:29;37.50;40.10
62573;DHT22;48626;51.678;5.806;2022-08-03T11:47:56;37.60;42.70
62573;DHT22;48626;51.678;5.806;2022-08-03T11:50:23;37.50;37.60
62573;DHT22;48626;51.678;5.806;2022-08-03T11:52:49;37.60;43.60
62573;DHT22;48626;51.678;5.806;2022-08-03T11:55:18;38.10;42.00
62573;DHT22;48626;51.678;5.806;2022-08-03T11:57:45;38.30;38.40
62573;DHT22;48626;51.678;5.806;2022-08-03T12:00:22;38.30;37.30
62573;DHT22;48626;51.678;5.806;2022-08-03T12:03:09;38.30;39.00
62573;DHT22;48626;51.678;5.806;2022-08-03T12:05:37;38.50;37.00
62573;DHT22;48626;51.678;5.806;2022-08-03T12:08:03;38.50;38.10
62573;DHT22;48626;51.678;5.806;2022-08-03T12:10:29;38.80;40.00
62573;DHT22;48626;51.678;5.806;2022-08-03T12:12:56;39.10;37.50
62573;DHT22;48626;51.678;5.806;2022-08-03T12:15:30;39.50;38.30
62573;DHT22;48626;51.678;5.806;2022-08-03T12:17:58;39.90;38.50
62573;DHT22;48626;51.678;5.806;2022-08-03T12:20:30;40.10;38.40
62573;DHT22;48626;51.678;5.806;2022-08-03T12:23:04;40.30;37.20
62573;DHT22;48626;51.678;5.806;2022-08-03T12:25:31;40.50;36.80
62573;DHT22;48626;51.678;5.806;2022-08-03T12:28:18;40.60;36.30
62573;DHT22;48626;51.678;5.806;2022-08-03T12:30:50;40.70;33.50
62573;DHT22;48626;51.678;5.806;2022-08-03T12:33:21;40.60;31.60
62573;DHT22;48626;51.678;5.806;2022-08-03T12:35:51;40.70;35.60
62573;DHT22;48626;51.678;5.806;2022-08-03T12:38:26;40.80;32.80
62573;DHT22;48626;51.678;5.806;2022-08-03T12:41:03;40.70;29.80
62573;DHT22;48626;51.678;5.806;2022-08-03T12:43:29;40.70;31.70
62573;DHT22;48626;51.678;5.806;2022-08-03T12:46:15;40.60;30.40
62573;DHT22;48626;51.678;5.806;2022-08-03T12:51:26;40.80;30.70
62573;DHT22;48626;51.678;5.806;2022-08-03T12:53:54;40.70;30.70
62573;DHT22;48626;51.678;5.806;2022-08-03T12:56:20;40.90;36.40
62573;DHT22;48626;51.678;5.806;2022-08-03T12:58:46;41.40;34.80
62573;DHT22;48626;51.678;5.806;2022-08-03T13:01:15;41.70;33.90
62573;DHT22;48626;51.678;5.806;2022-08-03T13:03:42;41.90;29.60
62573;DHT22;48626;51.678;5.806;2022-08-03T13:06:16;42.00;28.40
62573;DHT22;48626;51.678;5.806;2022-08-03T13:08:43;42.10;29.70
62573;DHT22;48626;51.678;5.806;2022-08-03T13:11:20;42.10;28.80
62573;DHT22;48626;51.678;5.806;2022-08-03T13:13:47;42.20;31.80
62573;DHT22;48626;51.678;5.806;2022-08-03T13:16:13;42.20;28.40
62573;DHT22;48626;51.678;5.806;2022-08-03T13:18:38;42.20;30.40
62573;DHT22;48626;51.678;5.806;2022-08-03T13:21:04;42.40;29.30
62573;DHT22;48626;51.678;5.806;2022-08-03T13:23:29;42.50;27.90
62573;DHT22;48626;51.678;5.806;2022-08-03T13:25:55;42.60;28.00
62573;DHT22;48626;51.678;5.806;2022-08-03T13:28:21;42.90;34.10
62573;DHT22;48626;51.678;5.806;2022-08-03T13:30:46;43.30;29.70
62573;DHT22;48626;51.678;5.806;2022-08-03T13:33:12;43.20;27.10
62573;DHT22;48626;51.678;5.806;2022-08-03T13:35:38;43.20;29.70
62573;DHT22;48626;51.678;5.806;2022-08-03T13:38:03;43.40;28.90
62573;DHT22;48626;51.678;5.806;2022-08-03T13:40:29;43.40;28.10
62573;DHT22;48626;51.678;5.806;2022-08-03T13:42:56;43.60;28.20
62573;DHT22;48626;51.678;5.806;2022-08-03T13:45:22;43.60;27.10
62573;DHT22;48626;51.678;5.806;2022-08-03T13:47:49;43.60;27.20
62573;DHT22;48626;51.678;5.806;2022-08-03T13:50:14;43.50;28.10
62573;DHT22;48626;51.678;5.806;2022-08-03T13:52:40;43.20;28.30
62573;DHT22;48626;51.678;5.806;2022-08-03T13:55:07;43.30;29.10
62573;DHT22;48626;51.678;5.806;2022-08-03T13:57:34;43.30;28.30
62573;DHT22;48626;51.678;5.806;2022-08-03T14:00:00;43.30;27.60
62573;DHT22;48626;51.678;5.806;2022-08-03T14:02:26;42.70;28.90
62573;DHT22;48626;51.678;5.806;2022-08-03T14:04:52;42.30;26.50
62573;DHT22;48626;51.678;5.806;2022-08-03T14:07:18;42.40;27.70
62573;DHT22;48626;51.678;5.806;2022-08-03T14:09:44;42.60;27.90
62573;DHT22;48626;51.678;5.806;2022-08-03T14:12:10;42.10;28.60
62573;DHT22;48626;51.678;5.806;2022-08-03T14:14:35;41.60;27.60
62573;DHT22;48626;51.678;5.806;2022-08-03T14:17:01;41.20;28.70
62573;DHT22;48626;51.678;5.806;2022-08-03T14:19:27;41.70;28.10
62573;DHT22;48626;51.678;5.806;2022-08-03T14:21:52;42.10;28.80
62573;DHT22;48626;51.678;5.806;2022-08-03T14:24:19;42.50;27.90
62573;DHT22;48626;51.678;5.806;2022-08-03T14:26:45;42.60;28.20
62573;DHT22;48626;51.678;5.806;2022-08-03T14:29:10;42.90;30.00
62573;DHT22;48626;51.678;5.806;2022-08-03T14:31:36;43.30;28.30
62573;DHT22;48626;51.678;5.806;2022-08-03T14:34:02;43.70;28.80
62573;DHT22;48626;51.678;5.806;2022-08-03T14:36:28;44.10;28.70
62573;DHT22;48626;51.678;5.806;2022-08-03T14:38:54;44.30;27.10
62573;DHT22;48626;51.678;5.806;2022-08-03T14:41:19;44.50;27.30
62573;DHT22;48626;51.678;5.806;2022-08-03T14:43:45;44.50;25.70
62573;DHT22;48626;51.678;5.806;2022-08-03T14:46:11;43.00;25.80
62573;DHT22;48626;51.678;5.806;2022-08-03T14:48:36;42.90;26.80
62573;DHT22;48626;51.678;5.806;2022-08-03T14:51:03;42.90;29.80
62573;DHT22;48626;51.678;5.806;2022-08-03T14:53:29;43.20;29.80
62573;DHT22;48626;51.678;5.806;2022-08-03T14:55:55;42.00;29.60
62573;DHT22;48626;51.678;5.806;2022-08-03T14:58:21;41.80;28.90
62573;DHT22;48626;51.678;5.806;2022-08-03T15:00:52;42.30;29.60
62573;DHT22;48626;51.678;5.806;2022-08-03T15:03:19;42.80;26.50
62573;DHT22;48626;51.678;5.806;2022-08-03T15:05:48;42.60;28.10
62573;DHT22;48626;51.678;5.806;2022-08-03T15:08:13;41.80;28.50
62573;DHT22;48626;51.678;5.806;2022-08-03T15:10:39;41.00;29.40
62573;DHT22;48626;51.678;5.806;2022-08-03T15:13:05;40.30;31.20
62573;DHT22;48626;51.678;5.806;2022-08-03T15:15:30;39.70;31.30
62573;DHT22;48626;51.678;5.806;2022-08-03T15:17:56;39.30;32.10
62573;DHT22;48626;51.678;5.806;2022-08-03T15:20:22;38.90;34.20
62573;DHT22;48626;51.678;5.806;2022-08-03T15:22:48;38.40;30.70
62573;DHT22;48626;51.678;5.806;2022-08-03T15:25:13;38.00;34.70
62573;DHT22;48626;51.678;5.806;2022-08-03T15:27:39;37.90;34.10
62573;DHT22;48626;51.678;5.806;2022-08-03T15:30:05;37.40;32.50
62573;DHT22;48626;51.678;5.806;2022-08-03T15:32:34;37.20;34.20
62573;DHT22;48626;51.678;5.806;2022-08-03T15:34:59;37.10;35.10
62573;DHT22;48626;51.678;5.806;2022-08-03T15:37:26;37.30;37.60
62573;DHT22;48626;51.678;5.806;2022-08-03T15:39:52;37.30;34.30
62573;DHT22;48626;51.678;5.806;2022-08-03T15:42:17;37.10;34.70
62573;DHT22;48626;51.678;5.806;2022-08-03T15:44:43;36.90;35.00
62573;DHT22;48626;51.678;5.806;2022-08-03T15:47:09;36.60;37.10
62573;DHT22;48626;51.678;5.806;2022-08-03T15:49:35;36.70;40.10
62573;DHT22;48626;51.678;5.806;2022-08-03T15:52:01;36.80;40.60
62573;DHT22;48626;51.678;5.806;2022-08-03T15:54:26;37.40;40.10
62573;DHT22;48626;51.678;5.806;2022-08-03T15:56:52;37.90;37.80
62573;DHT22;48626;51.678;5.806;2022-08-03T15:59:18;37.80;34.40
62573;DHT22;48626;51.678;5.806;2022-08-03T16:01:45;37.80;38.00
62573;DHT22;48626;51.678;5.806;2022-08-03T16:04:11;37.80;38.20
62573;DHT22;48626;51.678;5.806;2022-08-03T16:06:37;37.90;39.20
62573;DHT22;48626;51.678;5.806;2022-08-03T16:09:04;37.50;37.60
62573;DHT22;48626;51.678;5.806;2022-08-03T16:11:31;37.00;36.10
62573;DHT22;48626;51.678;5.806;2022-08-03T16:13:56;36.50;36.80